MSC Caitlin — D5PF3 — position and weather

sailwx.info

Track history (hours):
 
Tides and Currents Weather Stations Pressure Air Temp Water Temp Dewpoint Dewpoint Depression Visibility Wind Speed Wind Dir Waves Ship Positions

MSC Caitlin

Last reported at 2018-Apr-24 06:39 UTC. Time now 2018-Apr-25 21:40 UTC.
Position N 31°50' E 034°38'.

Length 216 m; draft 10.9 m.

Type: Cargo ship. MMSI: 636018323.

Date/timePositionNaut miles runAvg speedWind from/ knotsBaromVisibWave heightAir tempDewpointWater temp
2018-Apr-24 06:39N 31°50' E 034°38'  
2018-Apr-19 15:54N 31°41' E 031°46'513.4
2018-Apr-19 15:31N 31°36' E 031°47'510.4
2018-Apr-19 15:00N 31°31' E 031°46'3 0.2
2018-Apr-19 03:03N 31°28' E 031°45'0 0.0
2018-Apr-19 03:00N 31°28' E 031°45'4 2.5
2018-Apr-19 01:21N 31°32' E 031°46'3 9.0
2018-Apr-19 01:00N 31°35' E 031°47'3 2.4
2018-Apr-18 23:45N 31°38' E 031°45'0 0.1
2018-Apr-18 23:23N 31°38' E 031°45'0 0.0
2018-Apr-18 21:43N 31°38' E 031°45'0 0.0
2018-Apr-18 21:20N 31°38' E 031°45'0 0.0
2018-Apr-18 21:01N 31°38' E 031°45'0 0.6
2018-Apr-18 20:30N 31°37' E 031°45'0 0.3
2018-Apr-18 19:29N 31°38' E 031°45'0 0.0
2018-Apr-18 18:59N 31°38' E 031°45'0 0.0
2018-Apr-18 18:29N 31°38' E 031°45'0 0.0
2018-Apr-18 17:59N 31°38' E 031°45'0 0.0
2018-Apr-18 17:02N 31°38' E 031°45'0 0.3
2018-Apr-18 16:56N 31°38' E 031°45'0 0.0
2018-Apr-18 16:13N 31°38' E 031°45'0 0.1
2018-Apr-18 15:59N 31°38' E 031°45'0 0.0
2018-Apr-18 15:29N 31°38' E 031°45'0 0.0
2018-Apr-18 14:59N 31°38' E 031°45'0 0.0
2018-Apr-18 14:26N 31°38' E 031°45'0 0.6
2018-Apr-18 14:00N 31°38' E 031°45'0 0.5
2018-Apr-18 13:29N 31°38' E 031°45'0 0.0
2018-Apr-18 12:59N 31°38' E 031°45'0 0.0
2018-Apr-18 12:29N 31°38' E 031°45'0 0.3
2018-Apr-18 12:00N 31°38' E 031°45'0 0.3
2018-Apr-18 11:30N 31°38' E 031°45'0 0.0
2018-Apr-18 11:00N 31°38' E 031°45'0 0.0
2018-Apr-18 08:56N 31°38' E 031°45'2 2.9
2018-Apr-18 08:23N 31°38' E 031°47'614.1
2018-Apr-18 08:00N 31°42' E 031°43'917.5
2018-Apr-18 07:30N 31°49' E 031°37'1018.0
2018-Apr-18 06:56N 31°57' E 031°29'918.1
2018-Apr-18 06:27N 32°03' E 031°22'1017.9
2018-Apr-18 05:55N 32°11' E 031°15'2017.9
2018-Apr-18 04:47N 32°26' E 030°59'518.3
2018-Apr-18 04:30N 32°30' E 030°55'918.4
2018-Apr-18 04:00N 32°37' E 030°48'918.2
2018-Apr-18 03:30N 32°44' E 030°41'917.8
2018-Apr-18 03:00N 32°50' E 030°34'918.1
2018-Apr-18 02:30N 32°57' E 030°27'1917.9
2018-Apr-18 01:26N 33°12' E 030°12'33017.6
2018-Apr-17 06:40N 37°28' E 025°56'317.8
2018-Apr-17 06:30N 37°30' E 025°53'1017.5
2018-Apr-17 05:57N 37°39' E 025°51'  
Track history (hours):
 
Tides and Currents Weather Stations Pressure Air Temp Water Temp Dewpoint Dewpoint Depression Visibility Wind Speed Wind Dir Waves Ship Positions

MSC Caitlin

Last reported at 2018-Apr-24 06:39 UTC. Time now 2018-Apr-25 21:40 UTC.
Position N 31°50' E 034°38'.

Length 216 m; draft 10.9 m.

Type: Cargo ship. MMSI: 636018323.

Date/timePositionNaut miles runAvg speedWind from/ knotsBaromVisibWave heightAir tempDewpointWater temp
2018-Apr-24 06:39N 31°50' E 034°38'  
2018-Apr-19 15:54N 31°41' E 031°46'513.4
2018-Apr-19 15:31N 31°36' E 031°47'510.4
2018-Apr-19 15:00N 31°31' E 031°46'3 0.2
2018-Apr-19 03:03N 31°28' E 031°45'0 0.0
2018-Apr-19 03:00N 31°28' E 031°45'4 2.5
2018-Apr-19 01:21N 31°32' E 031°46'3 9.0
2018-Apr-19 01:00N 31°35' E 031°47'3 2.4
2018-Apr-18 23:45N 31°38' E 031°45'0 0.1
2018-Apr-18 23:23N 31°38' E 031°45'0 0.0
2018-Apr-18 21:43N 31°38' E 031°45'0 0.0
2018-Apr-18 21:20N 31°38' E 031°45'0 0.0
2018-Apr-18 21:01N 31°38' E 031°45'0 0.6
2018-Apr-18 20:30N 31°37' E 031°45'0 0.3
2018-Apr-18 19:29N 31°38' E 031°45'0 0.0
2018-Apr-18 18:59N 31°38' E 031°45'0 0.0
2018-Apr-18 18:29N 31°38' E 031°45'0 0.0
2018-Apr-18 17:59N 31°38' E 031°45'0 0.0
2018-Apr-18 17:02N 31°38' E 031°45'0 0.3
2018-Apr-18 16:56N 31°38' E 031°45'0 0.0
2018-Apr-18 16:13N 31°38' E 031°45'0 0.1
2018-Apr-18 15:59N 31°38' E 031°45'0 0.0
2018-Apr-18 15:29N 31°38' E 031°45'0 0.0
2018-Apr-18 14:59N 31°38' E 031°45'0 0.0
2018-Apr-18 14:26N 31°38' E 031°45'0 0.6
2018-Apr-18 14:00N 31°38' E 031°45'0 0.5
2018-Apr-18 13:29N 31°38' E 031°45'0 0.0
2018-Apr-18 12:59N 31°38' E 031°45'0 0.0
2018-Apr-18 12:29N 31°38' E 031°45'0 0.3
2018-Apr-18 12:00N 31°38' E 031°45'0 0.3
2018-Apr-18 11:30N 31°38' E 031°45'0 0.0
2018-Apr-18 11:00N 31°38' E 031°45'0 0.0
2018-Apr-18 08:56N 31°38' E 031°45'2 2.9
2018-Apr-18 08:23N 31°38' E 031°47'614.1
2018-Apr-18 08:00N 31°42' E 031°43'917.5
2018-Apr-18 07:30N 31°49' E 031°37'1018.0
2018-Apr-18 06:56N 31°57' E 031°29'918.1
2018-Apr-18 06:27N 32°03' E 031°22'1017.9
2018-Apr-18 05:55N 32°11' E 031°15'2017.9
2018-Apr-18 04:47N 32°26' E 030°59'518.3
2018-Apr-18 04:30N 32°30' E 030°55'918.4
2018-Apr-18 04:00N 32°37' E 030°48'918.2
2018-Apr-18 03:30N 32°44' E 030°41'917.8
2018-Apr-18 03:00N 32°50' E 030°34'918.1
2018-Apr-18 02:30N 32°57' E 030°27'1917.9
2018-Apr-18 01:26N 33°12' E 030°12'33017.6
2018-Apr-17 06:40N 37°28' E 025°56'317.8
2018-Apr-17 06:30N 37°30' E 025°53'1017.5
2018-Apr-17 05:57N 37°39' E 025°51'  

Dump ship's entire track history